Time;durP1;ratioP1;P1;durP2;ratioP2;P2;SDS_P1;SDS_P2;PMS_P1;PMS_P2;Temp;Humidity;BMP_temperature;BMP_pressure;BME280_temperature;BME280_humidity;BME280_pressure;Samples;Min_cycle;Max_cycle;Signal;HPM_P1;HPM_P2
2024/04/09 00:02:18;;;;;;;1999.90;999.90;;;;;;;;;;5395216;26;20008;-78
2024/04/09 00:04:47;;;;;;;1999.90;999.90;;;;;;;;;;5388717;26;20295;-78
2024/04/09 00:07:12;;;;;;;1999.90;999.90;;;;;;;;;;5395460;26;20008;-78
2024/04/09 00:09:45;;;;;;;1999.90;999.90;;;;;;;;;;5392747;26;20024;-78
2024/04/09 00:12:20;;;;;;;1999.90;999.90;;;;;;;;;;5397409;26;20473;-78
2024/04/09 00:14:50;;;;;;;1999.90;999.90;;;;;;;;;;5393720;26;20013;-78
2024/04/09 00:17:19;;;;;;;1999.90;999.90;;;;;;;;;;5397798;26;20003;-79
2024/04/09 00:19:47;;;;;;;1999.90;999.90;;;;;;;;;;5389335;26;20007;-78
2024/04/09 00:22:13;;;;;;;1999.90;999.90;;;;;;;;;;5391406;26;20036;-78
2024/04/09 00:24:41;;;;;;;1999.90;999.90;;;;;;;;;;5396086;26;20083;-78
2024/04/09 00:27:08;;;;;;;1999.90;999.90;;;;;;;;;;5394930;26;20481;-78
2024/04/09 00:29:39;;;;;;;1999.90;999.90;;;;;;;;;;5395470;26;20003;-78
2024/04/09 00:32:05;;;;;;;1999.90;999.90;;;;;;;;;;5388717;26;20008;-79
2024/04/09 00:34:33;;;;;;;1999.90;999.90;;;;;;;;;;5392388;26;20018;-79
2024/04/09 00:36:59;;;;;;;1999.90;999.90;;;;;;;;;;5388721;26;20011;-78
2024/04/09 00:39:27;;;;;;;1999.90;999.90;;;;;;;;;;5391340;26;20469;-79
2024/04/09 00:41:54;;;;;;;1999.90;999.90;;;;;;;;;;5388861;26;20000;-78
2024/04/09 00:44:24;;;;;;;1999.90;999.90;;;;;;;;;;5391467;26;20469;-79
2024/04/09 00:46:53;;;;;;;1999.90;999.90;;;;;;;;;;5390617;26;20019;-78
2024/04/09 00:49:22;;;;;;;1999.90;999.90;;;;;;;;;;5392209;26;20004;-78
2024/04/09 00:51:52;;;;;;;1999.90;999.90;;;;;;;;;;5391833;26;20000;-79
2024/04/09 00:54:21;;;;;;;1999.90;999.90;;;;;;;;;;5386981;26;20004;-78
2024/04/09 00:56:47;;;;;;;1999.90;999.90;;;;;;;;;;5389155;26;20014;-78
2024/04/09 00:59:16;;;;;;;1999.90;999.90;;;;;;;;;;5390994;26;20008;-78
2024/04/09 01:01:43;;;;;;;1999.90;999.90;;;;;;;;;;5391834;26;20016;-78
2024/04/09 01:04:15;;;;;;;1999.90;999.90;;;;;;;;;;5391442;26;20014;-78
2024/04/09 01:06:41;;;;;;;1999.90;999.90;;;;;;;;;;5392852;26;20019;-78
2024/04/09 01:09:09;;;;;;;1999.90;999.90;;;;;;;;;;5396031;26;20014;-80
2024/04/09 01:11:35;;;;;;;1999.90;999.90;;;;;;;;;;5400179;26;20097;-80
2024/04/09 01:14:03;;;;;;;1999.90;999.90;;;;;;;;;;5395053;26;20012;-80
2024/04/09 01:16:29;;;;;;;1999.90;999.90;;;;;;;;;;5396342;26;20402;-79
2024/04/09 01:18:58;;;;;;;1999.90;999.90;;;;;;;;;;5393450;26;20012;-80
2024/04/09 01:21:26;;;;;;;1999.90;999.90;;;;;;;;;;5391471;26;21002;-80
2024/04/09 01:23:58;;;;;;;1999.90;999.90;;;;;;;;;;5405550;26;20384;-80
2024/04/09 01:26:24;;;;;;;1999.90;999.90;;;;;;;;;;5389846;26;20008;-80
2024/04/09 01:28:54;;;;;;;1999.90;999.90;;;;;;;;;;5394527;26;20477;-79
2024/04/09 01:31:21;;;;;;;1999.90;999.90;;;;;;;;;;5400023;26;20101;-80
2024/04/09 01:33:51;;;;;;;1999.90;999.90;;;;;;;;;;5397129;26;20011;-79
2024/04/09 01:36:18;;;;;;;1999.90;999.90;;;;;;;;;;5386580;26;20713;-79
2024/04/09 01:38:48;;;;;;;1999.90;999.90;;;;;;;;;;5395854;26;20004;-80
2024/04/09 01:41:16;;;;;;;1999.90;999.90;;;;;;;;;;5394023;26;20012;-80
2024/04/09 01:43:44;;;;;;;1999.90;999.90;;;;;;;;;;5399605;26;20486;-80
2024/04/09 01:46:10;;;;;;;1999.90;999.90;;;;;;;;;;5397646;26;20005;-79
2024/04/09 01:48:39;;;;;;;1999.90;999.90;;;;;;;;;;5393690;26;20001;-79
2024/04/09 01:51:09;;;;;;;1999.90;999.90;;;;;;;;;;5396684;26;20014;-79
2024/04/09 01:53:37;;;;;;;1999.90;999.90;;;;;;;;;;5395383;26;20011;-79
2024/04/09 01:56:03;;;;;;;1999.90;999.90;;;;;;;;;;5394806;26;20003;-80
2024/04/09 01:58:39;;;;;;;1999.90;999.90;;;;;;;;;;5395965;26;20000;-79
2024/04/09 02:01:05;;;;;;;1999.90;999.90;;;;;;;;;;5391233;26;20014;-79
2024/04/09 02:03:34;;;;;;;1999.90;999.90;;;;;;;;;;5393326;26;20003;-79
2024/04/09 02:06:00;;;;;;;1999.90;999.90;;;;;;;;;;5394355;26;20000;-79
2024/04/09 02:08:29;;;;;;;1999.90;999.90;;;;;;;;;;5392675;26;20484;-79
2024/04/09 02:10:55;;;;;;;1999.90;999.90;;;;;;;;;;5387453;26;20000;-79
2024/04/09 02:13:25;;;;;;;1999.90;999.90;;;;;;;;;;5403235;26;20018;-79
2024/04/09 02:15:53;;;;;;;1999.90;999.90;;;;;;;;;;5390374;26;20362;-79
2024/04/09 02:18:22;;;;;;;1999.90;999.90;;;;;;;;;;5396817;26;20004;-78
2024/04/09 02:20:47;;;;;;;1999.90;999.90;;;;;;;;;;5395725;26;20453;-78
2024/04/09 02:23:15;;;;;;;1999.90;999.90;;;;;;;;;;5395718;26;20085;-78
2024/04/09 02:25:41;;;;;;;1999.90;999.90;;;;;;;;;;5390092;26;20019;-78
2024/04/09 02:28:09;;;;;;;1999.90;999.90;;;;;;;;;;5397109;26;20017;-78
2024/04/09 02:30:36;;;;;;;1999.90;999.90;;;;;;;;;;5395447;26;20014;-78
2024/04/09 02:33:07;;;;;;;1999.90;999.90;;;;;;;;;;5392147;26;20011;-78
2024/04/09 02:35:32;;;;;;;1999.90;999.90;;;;;;;;;;5395394;26;20031;-78
2024/04/09 02:38:01;;;;;;;1999.90;999.90;;;;;;;;;;5392731;26;20408;-78
2024/04/09 02:40:26;;;;;;;1999.90;999.90;;;;;;;;;;5391788;26;20036;-78
2024/04/09 02:42:56;;;;;;;1999.90;999.90;;;;;;;;;;5398969;26;20011;-78
2024/04/09 02:45:23;;;;;;;1999.90;999.90;;;;;;;;;;5391560;26;20015;-78
2024/04/09 02:47:52;;;;;;;1999.90;999.90;;;;;;;;;;5387132;26;20062;-78
2024/04/09 02:50:20;;;;;;;1999.90;999.90;;;;;;;;;;5390923;26;20362;-79
2024/04/09 02:52:49;;;;;;;1999.90;999.90;;;;;;;;;;5391308;26;20003;-78
2024/04/09 02:55:17;;;;;;;1999.90;999.90;;;;;;;;;;5396971;26;19999;-79
2024/04/09 02:57:45;;;;;;;1999.90;999.90;;;;;;;;;;5393651;26;20015;-78
2024/04/09 03:00:19;;;;;;;1999.90;999.90;;;;;;;;;;5397833;26;20019;-78
2024/04/09 03:02:50;;;;;;;1999.90;999.90;;;;;;;;;;5397637;26;20018;-78
2024/04/09 03:05:15;;;;;;;1999.90;999.90;;;;;;;;;;5396072;26;20035;-79
2024/04/09 03:07:46;;;;;;;1999.90;999.90;;;;;;;;;;5394512;26;20003;-78
2024/04/09 03:10:13;;;;;;;1999.90;999.90;;;;;;;;;;5396317;26;20371;-78
2024/04/09 03:12:41;;;;;;;1999.90;999.90;;;;;;;;;;5393988;26;20003;-78
2024/04/09 03:15:07;;;;;;;1999.90;999.90;;;;;;;;;;5398277;26;20080;-79
2024/04/09 03:17:35;;;;;;;1999.90;999.90;;;;;;;;;;5393158;26;20011;-78
2024/04/09 03:20:01;;;;;;;1999.90;999.90;;;;;;;;;;5393556;26;19996;-79
2024/04/09 03:22:29;;;;;;;1999.90;999.90;;;;;;;;;;5396750;26;20348;-78
2024/04/09 03:24:57;;;;;;;1999.90;999.90;;;;;;;;;;5393085;26;20080;-78
2024/04/09 03:27:26;;;;;;;1999.90;999.90;;;;;;;;;;5390089;26;20359;-78
2024/04/09 03:29:51;;;;;;;1999.90;999.90;;;;;;;;;;5392508;26;19995;-78
2024/04/09 03:32:19;;;;;;;1999.90;999.90;;;;;;;;;;5390311;26;20015;-78
2024/04/09 03:34:45;;;;;;;1999.90;999.90;;;;;;;;;;5393818;26;20587;-78
2024/04/09 03:37:14;;;;;;;1999.90;999.90;;;;;;;;;;5394262;26;20007;-78
2024/04/09 03:39:42;;;;;;;1999.90;999.90;;;;;;;;;;5386935;26;20050;-78
2024/04/09 03:42:13;;;;;;;1999.90;999.90;;;;;;;;;;5397796;26;20019;-78
2024/04/09 03:44:39;;;;;;;1999.90;999.90;;;;;;;;;;5393379;26;20937;-78
2024/04/09 03:47:07;;;;;;;1999.90;999.90;;;;;;;;;;5391737;26;20016;-78
2024/04/09 03:49:33;;;;;;;1999.90;999.90;;;;;;;;;;5384284;26;20556;-78
2024/04/09 03:52:01;;;;;;;1999.90;999.90;;;;;;;;;;5391718;26;20054;-78
2024/04/09 03:54:27;;;;;;;1999.90;999.90;;;;;;;;;;5394699;26;20008;-79
2024/04/09 03:56:55;;;;;;;1999.90;999.90;;;;;;;;;;5395189;26;20051;-78
2024/04/09 03:59:24;;;;;;;1999.90;999.90;;;;;;;;;;5396328;26;20000;-78
2024/04/09 04:01:52;;;;;;;1999.90;999.90;;;;;;;;;;5392354;26;20003;-78
2024/04/09 04:04:17;;;;;;;1999.90;999.90;;;;;;;;;;5398083;26;20039;-78
2024/04/09 04:06:46;;;;;;;1999.90;999.90;;;;;;;;;;5392736;26;20003;-78
2024/04/09 04:09:11;;;;;;;1999.90;999.90;;;;;;;;;;5391871;26;20099;-78
2024/04/09 04:11:39;;;;;;;1999.90;999.90;;;;;;;;;;5395940;26;20466;-78
2024/04/09 04:14:05;;;;;;;1999.90;999.90;;;;;;;;;;5390133;26;20089;-77
2024/04/09 04:16:36;;;;;;;1999.90;999.90;;;;;;;;;;5394137;26;20003;-79
2024/04/09 04:19:02;;;;;;;1999.90;999.90;;;;;;;;;;5390483;26;20005;-79
2024/04/09 04:21:30;;;;;;;1999.90;999.90;;;;;;;;;;5392490;26;20064;-78
2024/04/09 04:23:55;;;;;;;1999.90;999.90;;;;;;;;;;5386899;26;20000;-78
2024/04/09 04:26:26;;;;;;;1999.90;999.90;;;;;;;;;;5385539;26;20518;-81
2024/04/09 04:28:53;;;;;;;1999.90;999.90;;;;;;;;;;5393141;26;20006;-79
2024/04/09 04:31:23;;;;;;;1999.90;999.90;;;;;;;;;;5390741;26;20015;-78
2024/04/09 04:33:51;;;;;;;1999.90;999.90;;;;;;;;;;5390836;26;20358;-79
2024/04/09 04:36:21;;;;;;;1999.90;999.90;;;;;;;;;;5387907;26;20085;-78
2024/04/09 04:38:48;;;;;;;1999.90;999.90;;;;;;;;;;5392036;26;20008;-79
2024/04/09 04:41:16;;;;;;;1999.90;999.90;;;;;;;;;;5395843;26;20011;-79
2024/04/09 04:43:42;;;;;;;1999.90;999.90;;;;;;;;;;5395210;26;20485;-79
2024/04/09 04:46:11;;;;;;;1999.90;999.90;;;;;;;;;;5393204;26;20010;-78
2024/04/09 04:48:37;;;;;;;1999.90;999.90;;;;;;;;;;5391966;26;20087;-78
2024/04/09 04:51:08;;;;;;;1999.90;999.90;;;;;;;;;;5389795;26;19999;-78
2024/04/09 04:53:34;;;;;;;1999.90;999.90;;;;;;;;;;5391503;26;20008;-79
2024/04/09 04:56:02;;;;;;;1999.90;999.90;;;;;;;;;;5396183;26;20015;-82
2024/04/09 04:58:28;;;;;;;1999.90;999.90;;;;;;;;;;5395741;26;20103;-81
2024/04/09 05:00:56;;;;;;;1999.90;999.90;;;;;;;;;;5393825;26;20008;-81
2024/04/09 05:03:22;;;;;;;1999.90;999.90;;;;;;;;;;5394221;26;20003;-82
2024/04/09 05:05:50;;;;;;;1999.90;999.90;;;;;;;;;;5402187;26;20465;-80
2024/04/09 05:08:18;;;;;;;1999.90;999.90;;;;;;;;;;5397632;26;20005;-78
2024/04/09 05:10:47;;;;;;;1999.90;999.90;;;;;;;;;;5394058;26;20004;-80
2024/04/09 05:13:12;;;;;;;1999.90;999.90;;;;;;;;;;5401026;26;20035;-79
2024/04/09 05:15:40;;;;;;;1999.90;999.90;;;;;;;;;;5398124;26;20053;-86
2024/04/09 05:18:08;;;;;;;1999.90;999.90;;;;;;;;;;5399999;26;20016;-81
2024/04/09 05:20:36;;;;;;;1999.90;999.90;;;;;;;;;;5395553;26;20000;-79
2024/04/09 05:23:02;;;;;;;1999.90;999.90;;;;;;;;;;5395194;26;20004;-82
2024/04/09 05:25:33;;;;;;;1999.90;999.90;;;;;;;;;;5395544;26;20089;-84
2024/04/09 05:27:59;;;;;;;1999.90;999.90;;;;;;;;;;5391213;26;20464;-82
2024/04/09 05:30:28;;;;;;;1999.90;999.90;;;;;;;;;;5399903;26;20004;-80
2024/04/09 05:32:53;;;;;;;1999.90;999.90;;;;;;;;;;5393448;26;20018;-79
2024/04/09 05:35:22;;;;;;;1999.90;999.90;;;;;;;;;;5393694;26;20341;-81
2024/04/09 05:37:49;;;;;;;1999.90;999.90;;;;;;;;;;5394734;26;20018;-80
2024/04/09 05:40:18;;;;;;;1999.90;999.90;;;;;;;;;;5393179;26;20412;-82
2024/04/09 05:42:46;;;;;;;1999.90;999.90;;;;;;;;;;5396335;26;20502;-81
2024/04/09 05:45:16;;;;;;;1999.90;999.90;;;;;;;;;;5396476;26;20000;-80
2024/04/09 05:47:42;;;;;;;1999.90;999.90;;;;;;;;;;5397687;26;20003;-84
2024/04/09 05:50:11;;;;;;;1999.90;999.90;;;;;;;;;;5395724;26;20007;-80
2024/04/09 05:52:36;;;;;;;1999.90;999.90;;;;;;;;;;5397173;26;20036;-80
2024/04/09 05:55:05;;;;;;;1999.90;999.90;;;;;;;;;;5391132;26;20538;-80
2024/04/09 05:57:36;;;;;;;1999.90;999.90;;;;;;;;;;5393382;26;20349;-82
2024/04/09 06:00:09;;;;;;;1999.90;999.90;;;;;;;;;;5393082;26;20008;-81
2024/04/09 06:02:34;;;;;;;1999.90;999.90;;;;;;;;;;5393552;26;20004;-81
2024/04/09 06:05:03;;;;;;;1999.90;999.90;;;;;;;;;;5396064;26;20019;-82
2024/04/09 06:07:30;;;;;;;1999.90;999.90;;;;;;;;;;5397103;26;20383;-82
2024/04/09 06:09:59;;;;;;;1999.90;999.90;;;;;;;;;;5397667;26;20012;-83
2024/04/09 06:12:24;;;;;;;1999.90;999.90;;;;;;;;;;5403800;26;20003;-82
2024/04/09 06:14:54;;;;;;;1999.90;999.90;;;;;;;;;;5392186;26;20048;-81
2024/04/09 06:17:23;;;;;;;1999.90;999.90;;;;;;;;;;5398871;26;20032;-81
2024/04/09 06:19:53;;;;;;;1999.90;999.90;;;;;;;;;;5395476;26;20004;-81
2024/04/09 06:22:19;;;;;;;1999.90;999.90;;;;;;;;;;5391297;26;20073;-80
2024/04/09 06:24:49;;;;;;;1999.90;999.90;;;;;;;;;;5396856;26;20004;-81
2024/04/09 06:27:20;;;;;;;1999.90;999.90;;;;;;;;;;5385890;26;19996;-79
2024/04/09 06:29:48;;;;;;;1999.90;999.90;;;;;;;;;;5401738;26;19999;-81
2024/04/09 06:32:13;;;;;;;1999.90;999.90;;;;;;;;;;5394203;26;20478;-82
2024/04/09 06:34:44;;;;;;;1999.90;999.90;;;;;;;;;;5395936;26;20004;-82
2024/04/09 06:37:10;;;;;;;1999.90;999.90;;;;;;;;;;5395177;26;20484;-81
2024/04/09 06:39:38;;;;;;;1999.90;999.90;;;;;;;;;;5397057;26;20004;-81
2024/04/09 06:42:04;;;;;;;1999.90;999.90;;;;;;;;;;5398120;26;20100;-82
2024/04/09 06:44:33;;;;;;;1999.90;999.90;;;;;;;;;;5391381;26;20474;-82
2024/04/09 06:46:59;;;;;;;1999.90;999.90;;;;;;;;;;5399333;26;20968;-80
2024/04/09 06:49:27;;;;;;;1999.90;999.90;;;;;;;;;;5394557;26;20011;-81
2024/04/09 06:51:55;;;;;;;1999.90;999.90;;;;;;;;;;5398999;26;20035;-81
2024/04/09 06:54:24;;;;;;;1999.90;999.90;;;;;;;;;;5400985;26;20000;-81
2024/04/09 06:56:49;;;;;;;1999.90;999.90;;;;;;;;;;5396053;26;20007;-81
2024/04/09 06:59:18;;;;;;;1999.90;999.90;;;;;;;;;;5393034;26;20054;-82
2024/04/09 07:01:43;;;;;;;1999.90;999.90;;;;;;;;;;5398055;26;20047;-81
2024/04/09 07:04:12;;;;;;;1999.90;999.90;;;;;;;;;;5392866;26;20469;-82
2024/04/09 07:06:37;;;;;;;1999.90;999.90;;;;;;;;;;5399615;26;20015;-79
2024/04/09 07:09:09;;;;;;;1999.90;999.90;;;;;;;;;;5393052;26;20012;-78
2024/04/09 07:11:37;;;;;;;1999.90;999.90;;;;;;;;;;5405365;26;20054;-82
2024/04/09 07:14:02;;;;;;;1999.90;999.90;;;;;;;;;;5393613;26;20000;-80
2024/04/09 07:16:31;;;;;;;1999.90;999.90;;;;;;;;;;5390219;26;20010;-81
2024/04/09 07:18:56;;;;;;;1999.90;999.90;;;;;;;;;;5385838;26;20000;-80
2024/04/09 07:21:25;;;;;;;1999.90;999.90;;;;;;;;;;5393452;26;20014;-79
2024/04/09 07:23:51;;;;;;;1999.90;999.90;;;;;;;;;;5395307;26;20457;-80
2024/04/09 07:26:23;;;;;;;1999.90;999.90;;;;;;;;;;5395975;26;20019;-81
2024/04/09 07:28:49;;;;;;;1999.90;999.90;;;;;;;;;;5395277;26;20004;-81
2024/04/09 07:31:19;;;;;;;1999.90;999.90;;;;;;;;;;5394370;26;20004;-81
2024/04/09 07:33:46;;;;;;;1999.90;999.90;;;;;;;;;;5394802;26;20081;-81
2024/04/09 07:36:14;;;;;;;1999.90;999.90;;;;;;;;;;5392957;26;20013;-80
2024/04/09 07:38:40;;;;;;;1999.90;999.90;;;;;;;;;;5403420;26;20035;-81
2024/04/09 07:41:09;;;;;;;1999.90;999.90;;;;;;;;;;5389461;26;20004;-80
2024/04/09 07:43:37;;;;;;;1999.90;999.90;;;;;;;;;;5395487;26;20015;-81
2024/04/09 07:46:06;;;;;;;1999.90;999.90;;;;;;;;;;5400969;26;20014;-81
2024/04/09 07:48:31;;;;;;;1999.90;999.90;;;;;;;;;;5392566;26;20085;-81
2024/04/09 07:51:00;;;;;;;1999.90;999.90;;;;;;;;;;5399003;26;20477;-81
2024/04/09 07:53:28;;;;;;;1999.90;999.90;;;;;;;;;;5393583;26;20000;-81
2024/04/09 07:55:54;;;;;;;1999.90;999.90;;;;;;;;;;5399666;26;20493;-81
2024/04/09 07:58:22;;;;;;;1999.90;999.90;;;;;;;;;;5395210;26;19996;-80
2024/04/09 08:00:51;;;;;;;1999.90;999.90;;;;;;;;;;5394560;26;20028;-80
2024/04/09 08:03:19;;;;;;;1999.90;999.90;;;;;;;;;;5392975;26;20014;-81
2024/04/09 08:05:44;;;;;;;1999.90;999.90;;;;;;;;;;5390585;26;20022;-81
2024/04/09 08:08:13;;;;;;;1999.90;999.90;;;;;;;;;;5392612;26;20462;-82
2024/04/09 08:10:38;;;;;;;1999.90;999.90;;;;;;;;;;5394637;26;20159;-81
2024/04/09 08:13:06;;;;;;;1999.90;999.90;;;;;;;;;;5395310;26;20042;-81
2024/04/09 08:15:32;;;;;;;1999.90;999.90;;;;;;;;;;5393959;26;20039;-81
2024/04/09 08:18:03;;;;;;;1999.90;999.90;;;;;;;;;;5391463;26;20054;-81
2024/04/09 08:20:28;;;;;;;1999.90;999.90;;;;;;;;;;5393424;26;20118;-81
2024/04/09 08:23:00;;;;;;;1999.90;999.90;;;;;;;;;;5395874;26;20012;-81
2024/04/09 08:25:25;;;;;;;1999.90;999.90;;;;;;;;;;5393093;26;20000;-81
2024/04/09 08:28:01;;;;;;;1999.90;999.90;;;;;;;;;;5396686;26;20486;-81
2024/04/09 08:30:28;;;;;;;1999.90;999.90;;;;;;;;;;5396940;26;20045;-81
2024/04/09 08:32:56;;;;;;;1999.90;999.90;;;;;;;;;;5393426;26;19996;-81
2024/04/09 08:35:25;;;;;;;1999.90;999.90;;;;;;;;;;5393833;26;20546;-81
2024/04/09 08:37:53;;;;;;;1999.90;999.90;;;;;;;;;;5393027;26;20015;-82
2024/04/09 08:40:19;;;;;;;1999.90;999.90;;;;;;;;;;5394511;26;20000;-81
2024/04/09 08:42:48;;;;;;;1999.90;999.90;;;;;;;;;;5396039;26;20463;-81
2024/04/09 08:45:15;;;;;;;1999.90;999.90;;;;;;;;;;5400956;26;20008;-83
2024/04/09 08:47:44;;;;;;;1999.90;999.90;;;;;;;;;;5396325;26;20010;-82
2024/04/09 08:50:10;;;;;;;1999.90;999.90;;;;;;;;;;5396753;26;20016;-82
2024/04/09 08:52:41;;;;;;;1999.90;999.90;;;;;;;;;;5396141;26;20011;-82
2024/04/09 08:55:08;;;;;;;1999.90;999.90;;;;;;;;;;5396305;26;20008;-81
2024/04/09 08:57:36;;;;;;;1999.90;999.90;;;;;;;;;;5393787;26;20011;-81
2024/04/09 09:00:04;;;;;;;1999.90;999.90;;;;;;;;;;5391730;26;20047;-81
2024/04/09 09:02:32;;;;;;;1999.90;999.90;;;;;;;;;;5389140;26;20004;-82
2024/04/09 09:04:58;;;;;;;1999.90;999.90;;;;;;;;;;5387172;26;20018;-82
2024/04/09 09:07:27;;;;;;;1999.90;999.90;;;;;;;;;;5392812;26;20349;-81
2024/04/09 09:10:03;;;;;;;1999.90;999.90;;;;;;;;;;5395792;26;20053;-81
2024/04/09 09:12:31;;;;;;;1999.90;999.90;;;;;;;;;;5391949;26;20040;-82
2024/04/09 09:15:00;;;;;;;1999.90;999.90;;;;;;;;;;5393637;26;20004;-82
2024/04/09 09:17:29;;;;;;;1999.90;999.90;;;;;;;;;;5394572;26;20044;-81
2024/04/09 09:19:58;;;;;;;1999.90;999.90;;;;;;;;;;5391129;26;20004;-82
2024/04/09 09:22:28;;;;;;;1999.90;999.90;;;;;;;;;;5385967;26;20001;-81
2024/04/09 09:24:57;;;;;;;1999.90;999.90;;;;;;;;;;5397450;26;20004;-81
2024/04/09 09:27:29;;;;;;;1999.90;999.90;;;;;;;;;;5392172;26;20005;-82
2024/04/09 09:29:55;;;;;;;1999.90;999.90;;;;;;;;;;5399547;26;20560;-83
2024/04/09 09:32:24;;;;;;;1999.90;999.90;;;;;;;;;;5395324;26;20008;-83
2024/04/09 09:34:51;;;;;;;1999.90;999.90;;;;;;;;;;5401613;26;20004;-82
2024/04/09 09:37:19;;;;;;;1999.90;999.90;;;;;;;;;;5393938;26;20011;-82
2024/04/09 09:39:46;;;;;;;1999.90;999.90;;;;;;;;;;5396976;26;20016;-82
2024/04/09 09:42:15;;;;;;;1999.90;999.90;;;;;;;;;;5396239;26;20027;-82
2024/04/09 09:44:45;;;;;;;1999.90;999.90;;;;;;;;;;5389474;26;20040;-82
2024/04/09 09:47:13;;;;;;;1999.90;999.90;;;;;;;;;;5398534;26;20122;-83
2024/04/09 09:49:39;;;;;;;1999.90;999.90;;;;;;;;;;5398656;26;20008;-83
2024/04/09 09:52:07;;;;;;;1999.90;999.90;;;;;;;;;;5393501;26;19999;-86
2024/04/09 09:54:33;;;;;;;1999.90;999.90;;;;;;;;;;5387738;26;20024;-84
2024/04/09 09:57:21;;;;;;;1999.90;999.90;;;;;;;;;;5404357;26;20315;-87
2024/04/09 09:59:54;;;;;;;1999.90;999.90;;;;;;;;;;5399560;26;20557;-86
2024/04/09 10:02:25;;;;;;;1999.90;999.90;;;;;;;;;;5398847;26;20007;-88
2024/04/09 10:04:51;;;;;;;1999.90;999.90;;;;;;;;;;5394583;26;20036;-80
2024/04/09 10:07:21;;;;;;;1999.90;999.90;;;;;;;;;;5400123;26;20004;-82
2024/04/09 10:09:50;;;;;;;1999.90;999.90;;;;;;;;;;5401531;26;20003;-83
2024/04/09 10:12:22;;;;;;;1999.90;999.90;;;;;;;;;;5394482;26;20058;-83
2024/04/09 10:15:11;;;;;;;1999.90;999.90;;;;;;;;;;5394416;26;19999;-81
2024/04/09 10:17:50;;;;;;;1999.90;999.90;;;;;;;;;;5398488;26;19999;-78
2024/04/09 10:20:17;;;;;;;1999.90;999.90;;;;;;;;;;5394844;26;20004;-91
2024/04/09 10:22:45;;;;;;;1999.90;999.90;;;;;;;;;;5396948;26;20489;-84
2024/04/09 10:25:15;;;;;;;1999.90;999.90;;;;;;;;;;5398626;26;20103;-85
2024/04/09 10:27:43;;;;;;;1999.90;999.90;;;;;;;;;;5405351;26;20012;-85
2024/04/09 10:30:17;;;;;;;1999.90;999.90;;;;;;;;;;5393029;26;20019;-85
2024/04/09 10:32:56;;;;;;;1999.90;999.90;;;;;;;;;;5398497;26;20004;-83
2024/04/09 10:35:22;;;;;;;1999.90;999.90;;;;;;;;;;5396016;26;20015;-84
2024/04/09 10:37:50;;;;;;;1999.90;999.90;;;;;;;;;;5391931;26;20000;-82
2024/04/09 10:40:17;;;;;;;1999.90;999.90;;;;;;;;;;5392093;26;19999;-84
2024/04/09 10:42:45;;;;;;;1999.90;999.90;;;;;;;;;;5398360;26;20465;-83
2024/04/09 10:45:11;;;;;;;1999.90;999.90;;;;;;;;;;5388963;26;20023;-84
2024/04/09 10:47:42;;;;;;;1999.90;999.90;;;;;;;;;;5393518;26;20412;-84
2024/04/09 10:50:08;;;;;;;1999.90;999.90;;;;;;;;;;5398508;26;20076;-83
2024/04/09 10:52:38;;;;;;;1999.90;999.90;;;;;;;;;;5400299;26;20011;-82
2024/04/09 10:55:06;;;;;;;1999.90;999.90;;;;;;;;;;5392458;26;20054;-82
2024/04/09 10:57:35;;;;;;;1999.90;999.90;;;;;;;;;;5396988;26;20014;-82
2024/04/09 11:00:08;;;;;;;1999.90;999.90;;;;;;;;;;5398418;26;20016;-81
2024/04/09 11:02:37;;;;;;;1999.90;999.90;;;;;;;;;;5400276;26;20076;-80
2024/04/09 11:05:06;;;;;;;1999.90;999.90;;;;;;;;;;5395322;26;20014;-82
2024/04/09 11:07:35;;;;;;;1999.90;999.90;;;;;;;;;;5394165;26;20145;-83
2024/04/09 11:10:01;;;;;;;1999.90;999.90;;;;;;;;;;5395662;26;20058;-83
2024/04/09 11:12:30;;;;;;;1999.90;999.90;;;;;;;;;;5402114;26;20015;-81
2024/04/09 11:14:57;;;;;;;1999.90;999.90;;;;;;;;;;5398332;26;20004;-82
2024/04/09 11:17:25;;;;;;;1999.90;999.90;;;;;;;;;;5391673;26;20037;-83
2024/04/09 11:19:51;;;;;;;1999.90;999.90;;;;;;;;;;5395707;26;20080;-81
2024/04/09 11:22:22;;;;;;;1999.90;999.90;;;;;;;;;;5394329;26;20011;-82
2024/04/09 11:24:47;;;;;;;1999.90;999.90;;;;;;;;;;5395153;26;20015;-81
2024/04/09 11:27:16;;;;;;;1999.90;999.90;;;;;;;;;;5387135;26;20470;-83
2024/04/09 11:29:46;;;;;;;1999.90;999.90;;;;;;;;;;5392640;26;20098;-82
2024/04/09 11:32:15;;;;;;;1999.90;999.90;;;;;;;;;;5396186;26;20003;-81
2024/04/09 11:34:40;;;;;;;1999.90;999.90;;;;;;;;;;5398484;26;20007;-82
2024/04/09 11:37:10;;;;;;;1999.90;999.90;;;;;;;;;;5398675;26;20004;-82
2024/04/09 11:39:38;;;;;;;1999.90;999.90;;;;;;;;;;5396721;26;20000;-82
2024/04/09 11:42:07;;;;;;;1999.90;999.90;;;;;;;;;;5394051;26;20020;-83
2024/04/09 11:44:33;;;;;;;1999.90;999.90;;;;;;;;;;5394959;26;20004;-83
2024/04/09 11:47:01;;;;;;;1999.90;999.90;;;;;;;;;;5398318;26;20564;-82
2024/04/09 11:49:27;;;;;;;1999.90;999.90;;;;;;;;;;5394339;26;20004;-82
2024/04/09 11:51:56;;;;;;;1999.90;999.90;;;;;;;;;;5393707;26;20000;-81
2024/04/09 11:54:21;;;;;;;1999.90;999.90;;;;;;;;;;5390126;26;20015;-83
2024/04/09 11:56:52;;;;;;;1999.90;999.90;;;;;;;;;;5393379;26;20015;-82
2024/04/09 11:59:18;;;;;;;1999.90;999.90;;;;;;;;;;5387583;26;20048;-83
2024/04/09 12:01:46;;;;;;;1999.90;999.90;;;;;;;;;;5389463;26;20008;-82
2024/04/09 12:04:12;;;;;;;1999.90;999.90;;;;;;;;;;5401192;26;20003;-86
2024/04/09 12:06:41;;;;;;;1999.90;999.90;;;;;;;;;;5400560;26;20010;-86
2024/04/09 12:09:07;;;;;;;1999.90;999.90;;;;;;;;;;5393199;26;20098;-80
2024/04/09 12:11:36;;;;;;;1999.90;999.90;;;;;;;;;;5391313;26;20007;-80
2024/04/09 12:14:06;;;;;;;1999.90;999.90;;;;;;;;;;5390200;26;20468;-83
2024/04/09 12:16:37;;;;;;;1999.90;999.90;;;;;;;;;;5390121;26;20465;-83
2024/04/09 12:19:03;;;;;;;1999.90;999.90;;;;;;;;;;5394357;26;20442;-84
2024/04/09 12:21:31;;;;;;;1999.90;999.90;;;;;;;;;;5396028;26;20019;-83
2024/04/09 12:23:57;;;;;;;1999.90;999.90;;;;;;;;;;5393272;26;20032;-80
2024/04/09 12:26:25;;;;;;;1999.90;999.90;;;;;;;;;;5384543;26;20425;-80
2024/04/09 12:28:57;;;;;;;1999.90;999.90;;;;;;;;;;5394465;26;20019;-80
2024/04/09 12:31:28;;;;;;;1999.90;999.90;;;;;;;;;;5392439;26;20017;-81
2024/04/09 12:33:54;;;;;;;1999.90;999.90;;;;;;;;;;5390876;26;20458;-80
2024/04/09 12:36:22;;;;;;;1999.90;999.90;;;;;;;;;;5394186;26;20076;-77
2024/04/09 12:38:48;;;;;;;1999.90;999.90;;;;;;;;;;5397333;26;20008;-85
2024/04/09 12:41:16;;;;;;;1999.90;999.90;;;;;;;;;;5390930;26;20069;-77
2024/04/09 12:43:42;;;;;;;1999.90;999.90;;;;;;;;;;5390002;26;20016;-79
2024/04/09 12:46:10;;;;;;;1999.90;999.90;;;;;;;;;;5394161;26;20018;-79
2024/04/09 12:48:39;;;;;;;1999.90;999.90;;;;;;;;;;5383003;26;20016;-81
2024/04/09 12:51:08;;;;;;;1999.90;999.90;;;;;;;;;;5392380;26;19996;-81
2024/04/09 12:53:34;;;;;;;1999.90;999.90;;;;;;;;;;5393866;26;20003;-79
2024/04/09 12:56:03;;;;;;;1999.90;999.90;;;;;;;;;;5399602;26;20346;-80
2024/04/09 12:58:29;;;;;;;1999.90;999.90;;;;;;;;;;5390377;26;20016;-84
2024/04/09 13:00:57;;;;;;;1999.90;999.90;;;;;;;;;;5391658;26;20019;-76
2024/04/09 13:03:23;;;;;;;1999.90;999.90;;;;;;;;;;5394596;26;20094;-81
2024/04/09 13:05:53;;;;;;;1999.90;999.90;;;;;;;;;;5395120;26;20141;-79
2024/04/09 13:08:19;;;;;;;1999.90;999.90;;;;;;;;;;5397474;26;20088;-81
2024/04/09 13:10:47;;;;;;;1999.90;999.90;;;;;;;;;;5396447;26;20000;-81
2024/04/09 13:13:13;;;;;;;1999.90;999.90;;;;;;;;;;5397108;26;20091;-81
2024/04/09 13:15:42;;;;;;;1999.90;999.90;;;;;;;;;;5393570;26;19997;-80
2024/04/09 13:18:07;;;;;;;1999.90;999.90;;;;;;;;;;5397085;26;20102;-80
2024/04/09 13:20:36;;;;;;;1999.90;999.90;;;;;;;;;;5400958;26;20420;-81
2024/04/09 13:23:04;;;;;;;1999.90;999.90;;;;;;;;;;5398641;26;20015;-79
2024/04/09 13:25:32;;;;;;;1999.90;999.90;;;;;;;;;;5397715;26;20027;-80
2024/04/09 13:27:58;;;;;;;1999.90;999.90;;;;;;;;;;5393097;26;20041;-79
2024/04/09 13:30:27;;;;;;;1999.90;999.90;;;;;;;;;;5396814;26;20000;-80
2024/04/09 13:32:53;;;;;;;1999.90;999.90;;;;;;;;;;5397303;26;20109;-81
2024/04/09 13:35:21;;;;;;;1999.90;999.90;;;;;;;;;;5394808;26;20518;-80
2024/04/09 13:37:46;;;;;;;1999.90;999.90;;;;;;;;;;5389480;26;20000;-79
2024/04/09 13:40:17;;;;;;;1999.90;999.90;;;;;;;;;;5397549;26;20027;-80
2024/04/09 13:42:44;;;;;;;1999.90;999.90;;;;;;;;;;5398359;26;20000;-80
2024/04/09 13:45:13;;;;;;;1999.90;999.90;;;;;;;;;;5393269;26;20028;-82
2024/04/09 13:47:39;;;;;;;1999.90;999.90;;;;;;;;;;5394477;26;20077;-80